To NAV CANADA Home Page Login to a new session Search on AWWS site Feedback and Comments Disclaimer Vers la page française équivalente Tips FAQ What's new on the site To the Forecasts and Observations / NOTAM section To "File a Flight Plan" website Publications and other links Update of the User's profile FIC Telephone Numbers My Weather Data Folder Route Weather Data Regional Weather Data Local Weather Data To the Forecasts and Observations / NOTAM section
Request Generated 05/29/2016 at 09:31:27 UTC . Weather information available at that time is displayed.

METAR/TAF

LYNN LAKE/MB    (show WxCam)

SPECI CYYL 290910Z AUTO 11003KT 9SM OVC023 07/05 A3004 RMK SLP189=
METAR CYYL 290900Z AUTO 11003KT 9SM OVC025 07/05 A3004 RMK SLP190=
METAR CYYL 290800Z AUTO 17003KT 9SM OVC029 07/04 A3004 RMK SLP192=
METAR CYYL 290700Z AUTO 16004KT 9SM OVC029 07/04 A3005 RMK SLP193=

TAF CYYL 290639Z 2907/2919 14005KT P6SM BKN020 TEMPO 2907/2919 BKN025
PROB30 2910/2915 OVC005
RMK FCST BASED ON AUTO OBS. NXT FCST BY 291300Z=
Your time UTC time
Weather data provided by Environment Canada and NAV CANADA